createdAt,value
2023-03-10T00:00:42.905Z,5.38
2023-03-10T00:01:44.721Z,5.37
2023-03-10T00:02:49.751Z,5.34
2023-03-10T00:03:51.625Z,5.31
2023-03-10T00:04:54.386Z,5.32
2023-03-10T00:05:56.315Z,5.34
2023-03-10T00:06:58.054Z,5.30
2023-03-10T00:07:59.948Z,5.28
2023-03-10T00:09:01.803Z,5.26
2023-03-10T00:10:04.023Z,5.25
2023-03-10T00:11:05.845Z,5.23
2023-03-10T00:12:07.822Z,5.28
2023-03-10T00:13:09.704Z,5.25
2023-03-10T00:14:11.462Z,5.24
2023-03-10T00:15:13.308Z,5.25
2023-03-10T00:16:20.286Z,5.26
2023-03-10T00:17:22.304Z,5.29
2023-03-10T00:18:24.208Z,5.31
2023-03-10T00:19:27.054Z,5.29
2023-03-10T00:20:28.869Z,5.23
2023-03-10T00:21:31.450Z,5.23
2023-03-10T00:22:33.315Z,5.26
2023-03-10T00:23:37.472Z,5.26
2023-03-10T00:24:39.520Z,5.24
2023-03-10T00:25:41.313Z,5.26
2023-03-10T00:26:43.205Z,5.21
2023-03-10T00:27:44.960Z,5.23
2023-03-10T00:28:47.629Z,5.20
2023-03-10T00:29:51.478Z,5.25
2023-03-10T00:30:59.351Z,5.21
2023-03-10T00:32:01.166Z,5.16
2023-03-10T00:33:03.562Z,5.14
2023-03-10T00:34:06.034Z,5.19
2023-03-10T00:35:08.011Z,5.23
2023-03-10T00:36:14.750Z,5.27
2023-03-10T00:37:17.121Z,5.30
2023-03-10T00:38:18.977Z,5.28
2023-03-10T00:39:20.829Z,5.26
2023-03-10T00:40:22.712Z,5.27
2023-03-10T00:41:25.751Z,5.29
2023-03-10T00:42:27.558Z,5.32
2023-03-10T00:43:29.492Z,5.33
2023-03-10T00:44:31.313Z,5.34
2023-03-10T00:45:34.974Z,5.36
2023-03-10T00:46:38.838Z,5.34
2023-03-10T00:47:40.959Z,5.34
2023-03-10T00:48:43.069Z,5.25
2023-03-10T00:49:44.909Z,5.24
2023-03-10T00:50:46.765Z,5.28
2023-03-10T00:51:48.565Z,5.31
2023-03-10T00:52:51.531Z,5.29
2023-03-10T00:53:53.544Z,5.25
2023-03-10T00:54:55.394Z,5.24
2023-03-10T00:56:08.210Z,5.21
2023-03-10T00:57:10.043Z,5.17
2023-03-10T00:58:11.829Z,5.22
2023-03-10T00:59:13.555Z,5.26
2023-03-10T01:00:18.293Z,5.30
2023-03-10T01:01:21.447Z,5.29
2023-03-10T01:02:23.340Z,5.29
2023-03-10T01:03:25.907Z,5.23
2023-03-10T01:04:27.803Z,5.22
2023-03-10T01:05:29.738Z,5.20
2023-03-10T01:06:32.273Z,5.23
2023-03-10T01:07:34.044Z,5.21
2023-03-10T01:08:36.190Z,5.18
2023-03-10T01:09:38.035Z,5.20
2023-03-10T01:10:39.847Z,5.16
2023-03-10T01:11:41.909Z,5.20
2023-03-10T01:12:43.870Z,5.20
2023-03-10T01:13:45.917Z,5.15
2023-03-10T01:14:47.715Z,5.10
2023-03-10T01:15:51.061Z,5.15
2023-03-10T01:16:53.145Z,5.16
2023-03-10T01:17:54.934Z,5.18
2023-03-10T01:18:57.539Z,5.18
2023-03-10T01:19:59.517Z,5.17
2023-03-10T01:21:01.390Z,5.21
2023-03-10T01:22:03.240Z,5.20
2023-03-10T01:23:05.086Z,5.19
2023-03-10T01:24:07.862Z,5.19
2023-03-10T01:25:13.777Z,5.17
2023-03-10T01:26:18.121Z,5.11
2023-03-10T01:27:20.489Z,5.09
2023-03-10T01:28:22.661Z,5.11
2023-03-10T01:29:24.589Z,5.13
2023-03-10T01:30:26.546Z,5.13
2023-03-10T01:31:28.482Z,5.13
2023-03-10T01:32:30.336Z,5.12
2023-03-10T01:33:32.917Z,5.10
2023-03-10T01:34:34.677Z,5.09
2023-03-10T01:35:36.689Z,5.05
2023-03-10T01:36:41.018Z,5.00
2023-03-10T01:37:44.490Z,5.06
2023-03-10T01:38:47.241Z,5.07
2023-03-10T01:39:48.985Z,5.07
2023-03-10T01:40:51.278Z,5.06
2023-03-10T01:41:53.084Z,5.02
2023-03-10T01:43:14.820Z,5.03
2023-03-10T01:44:18.769Z,5.05
2023-03-10T01:45:20.542Z,5.05
2023-03-10T01:46:37.318Z,5.03
2023-03-10T01:47:39.192Z,5.08
2023-03-10T01:48:41.048Z,5.05
2023-03-10T01:49:45.936Z,4.99
2023-03-10T01:50:49.972Z,4.95
2023-03-10T01:51:55.819Z,4.93
2023-03-10T01:52:58.901Z,4.90
2023-03-10T01:54:02.198Z,4.87
2023-03-10T01:55:12.064Z,4.87
2023-03-10T01:56:14.842Z,4.89
2023-03-10T01:57:17.544Z,4.91
2023-03-10T01:58:21.132Z,4.93
2023-03-10T01:59:24.090Z,4.92
2023-03-10T02:00:26.773Z,4.92
2023-03-10T02:01:28.867Z,4.90
2023-03-10T02:02:33.762Z,4.87
2023-03-10T02:03:41.211Z,4.87
2023-03-10T02:04:48.997Z,4.84
2023-03-10T02:05:54.022Z,4.81
2023-03-10T02:06:56.969Z,4.83
2023-03-10T02:07:59.926Z,4.83
2023-03-10T02:09:03.201Z,4.84
2023-03-10T02:10:05.613Z,4.83
2023-03-10T02:11:07.722Z,4.85
2023-03-10T02:12:09.857Z,4.83
2023-03-10T02:13:11.725Z,4.79
2023-03-10T02:14:13.557Z,4.78
2023-03-10T02:15:15.500Z,4.76
2023-03-10T02:16:18.535Z,4.77
2023-03-10T02:17:22.260Z,4.83
2023-03-10T02:18:24.513Z,4.84
2023-03-10T02:19:46.586Z,4.87
2023-03-10T02:21:06.764Z,4.91
2023-03-10T02:22:10.658Z,4.88
2023-03-10T02:23:16.109Z,4.87
2023-03-10T02:24:27.038Z,4.85
2023-03-10T02:25:34.757Z,4.80
2023-03-10T02:26:41.371Z,4.74
2023-03-10T02:27:43.464Z,4.78
2023-03-10T02:28:46.535Z,4.80
2023-03-10T02:29:59.982Z,4.73
2023-03-10T02:31:02.594Z,4.65
2023-03-10T02:32:04.996Z,4.64
2023-03-10T02:33:15.316Z,4.65
2023-03-10T02:34:17.298Z,4.69
2023-03-10T02:35:19.324Z,4.66
2023-03-10T02:36:22.169Z,4.61
2023-03-10T02:37:29.190Z,4.63
2023-03-10T02:38:31.100Z,4.63
2023-03-10T02:39:32.886Z,4.64
2023-03-10T02:40:40.816Z,4.63
2023-03-10T02:41:45.468Z,4.59
2023-03-10T02:42:47.461Z,4.57
2023-03-10T02:43:49.951Z,4.54
2023-03-10T02:44:52.643Z,4.53
2023-03-10T02:45:57.301Z,4.50
2023-03-10T02:46:59.171Z,4.51
2023-03-10T02:48:00.988Z,4.52
2023-03-10T02:49:03.526Z,4.53
2023-03-10T02:50:08.693Z,4.46
2023-03-10T02:51:14.194Z,4.46
2023-03-10T02:52:27.779Z,4.43
2023-03-10T02:53:30.190Z,4.41
2023-03-10T02:54:32.098Z,4.37
2023-03-10T02:55:34.023Z,4.38
2023-03-10T02:56:36.520Z,4.40
2023-03-10T02:57:38.321Z,4.38
2023-03-10T02:58:40.211Z,4.32
2023-03-10T02:59:42.071Z,4.29
2023-03-10T03:00:45.230Z,4.30
2023-03-10T03:01:47.129Z,4.34
2023-03-10T03:02:48.989Z,4.36
2023-03-10T03:03:50.986Z,4.40
2023-03-10T03:04:52.857Z,4.43
2023-03-10T03:05:54.631Z,4.45
2023-03-10T03:06:56.405Z,4.42
2023-03-10T03:07:58.280Z,4.40
2023-03-10T03:09:00.172Z,4.41
2023-03-10T03:10:01.946Z,4.37
2023-03-10T03:11:04.245Z,4.34
2023-03-10T03:12:06.214Z,4.35
2023-03-10T03:13:08.593Z,4.38
2023-03-10T03:14:10.551Z,4.33
2023-03-10T03:15:12.563Z,4.34
2023-03-10T03:16:14.510Z,4.29
2023-03-10T03:17:16.403Z,4.25
2023-03-10T03:18:18.283Z,4.23
2023-03-10T03:19:20.209Z,4.24
2023-03-10T03:20:22.079Z,4.18
2023-03-10T03:21:23.901Z,4.18
2023-03-10T03:22:25.721Z,4.17
2023-03-10T03:23:27.716Z,4.17
2023-03-10T03:24:29.558Z,4.17
2023-03-10T03:25:34.766Z,4.20
2023-03-10T03:26:36.543Z,4.24
2023-03-10T03:27:38.351Z,4.23
2023-03-10T03:28:40.367Z,4.23
2023-03-10T03:29:42.274Z,4.26
2023-03-10T03:30:45.297Z,4.21
2023-03-10T03:31:47.149Z,4.15
2023-03-10T03:32:49.145Z,4.17
2023-03-10T03:33:51.408Z,4.17
2023-03-10T03:34:53.225Z,4.17
2023-03-10T03:35:55.156Z,4.16
2023-03-10T03:36:57.101Z,4.10
2023-03-10T03:37:59.110Z,4.12
2023-03-10T03:39:01.059Z,4.19
2023-03-10T03:40:07.997Z,4.24
2023-03-10T03:41:10.742Z,4.21
2023-03-10T03:42:12.491Z,4.19
2023-03-10T03:43:14.872Z,4.20
2023-03-10T03:44:16.691Z,4.23
2023-03-10T03:45:20.207Z,4.19
2023-03-10T03:46:22.034Z,4.19
2023-03-10T03:47:23.888Z,4.18
2023-03-10T03:48:25.736Z,4.24
2023-03-10T03:49:27.653Z,4.26
2023-03-10T03:50:29.500Z,4.29
2023-03-10T03:51:31.406Z,4.32
2023-03-10T03:52:33.766Z,4.35
2023-03-10T03:53:35.939Z,4.34
2023-03-10T03:54:37.924Z,4.33
2023-03-10T03:55:39.808Z,4.35
2023-03-10T03:56:41.694Z,4.39
2023-03-10T03:57:45.178Z,4.36
2023-03-10T03:58:46.880Z,4.32
2023-03-10T03:59:48.769Z,4.29
2023-03-10T04:00:51.844Z,4.27
2023-03-10T04:01:53.824Z,4.33
2023-03-10T04:02:55.620Z,4.35
2023-03-10T04:03:57.563Z,4.37
2023-03-10T04:04:59.566Z,4.34
2023-03-10T04:06:01.600Z,4.32
2023-03-10T04:07:03.585Z,4.25
2023-03-10T04:08:05.584Z,4.24
2023-03-10T04:09:07.824Z,4.23
2023-03-10T04:10:11.093Z,4.26
2023-03-10T04:11:12.900Z,4.25
2023-03-10T04:12:14.801Z,4.21
2023-03-10T04:13:16.687Z,4.18
2023-03-10T04:14:18.741Z,4.19
2023-03-10T04:15:21.279Z,4.18
2023-03-10T04:16:23.064Z,4.21
2023-03-10T04:17:24.890Z,4.19
2023-03-10T04:18:26.983Z,4.21
2023-03-10T04:19:28.790Z,4.23
2023-03-10T04:20:30.578Z,4.20
2023-03-10T04:21:32.359Z,4.14
2023-03-10T04:22:34.211Z,4.15
2023-03-10T04:23:36.146Z,4.15
2023-03-10T04:24:39.693Z,4.16
2023-03-10T04:25:43.460Z,4.17
2023-03-10T04:26:45.405Z,4.18
2023-03-10T04:27:48.075Z,4.15
2023-03-10T04:28:49.910Z,4.14
2023-03-10T04:29:51.765Z,4.11
2023-03-10T04:30:53.548Z,4.10
2023-03-10T04:32:05.173Z,4.12
2023-03-10T04:33:09.771Z,4.07
2023-03-10T04:34:11.593Z,4.03
2023-03-10T04:35:13.882Z,4.07
2023-03-10T04:36:16.235Z,4.10
2023-03-10T04:37:18.297Z,4.11
2023-03-10T04:38:20.167Z,4.08
2023-03-10T04:39:21.971Z,4.10
2023-03-10T04:40:23.935Z,4.14
2023-03-10T04:41:26.005Z,4.08
2023-03-10T04:42:28.311Z,4.01
2023-03-10T04:43:30.119Z,4.01
2023-03-10T04:44:32.005Z,3.96
2023-03-10T04:45:33.795Z,3.87
2023-03-10T04:46:35.699Z,3.83
2023-03-10T04:47:38.181Z,3.87
2023-03-10T04:48:40.140Z,3.88
2023-03-10T04:49:42.305Z,3.83
2023-03-10T04:50:44.244Z,3.79
2023-03-10T04:51:48.110Z,3.78
2023-03-10T04:52:50.737Z,3.87
2023-03-10T04:53:52.579Z,3.91
2023-03-10T04:54:54.411Z,3.90
2023-03-10T04:55:56.253Z,3.92
2023-03-10T04:56:58.227Z,3.96
2023-03-10T04:58:00.021Z,3.96
2023-03-10T04:59:01.925Z,3.95
2023-03-10T05:00:08.236Z,3.96
2023-03-10T05:01:10.815Z,4.00
2023-03-10T05:02:12.746Z,4.03
2023-03-10T05:03:14.663Z,4.03
2023-03-10T05:04:16.523Z,3.88
2023-03-10T05:05:18.471Z,3.79
2023-03-10T05:06:21.872Z,3.81
2023-03-10T05:07:23.955Z,3.77
2023-03-10T05:08:25.733Z,3.72
2023-03-10T05:09:27.899Z,3.69
2023-03-10T05:10:29.757Z,3.65
2023-03-10T05:11:32.417Z,3.60
2023-03-10T05:12:34.275Z,3.61
2023-03-10T05:13:36.267Z,3.63
2023-03-10T05:14:38.503Z,3.63
2023-03-10T05:15:40.757Z,3.64
2023-03-10T05:16:43.092Z,3.63
2023-03-10T05:17:44.966Z,3.60
2023-03-10T05:18:47.252Z,3.62
2023-03-10T05:19:49.140Z,3.64
2023-03-10T05:20:55.582Z,3.66
2023-03-10T05:21:57.393Z,3.64
2023-03-10T05:22:59.310Z,3.62
2023-03-10T05:24:01.932Z,3.65
2023-03-10T05:25:05.192Z,3.69
2023-03-10T05:26:08.823Z,3.74
2023-03-10T05:27:11.414Z,3.73
2023-03-10T05:28:13.222Z,3.68
2023-03-10T05:29:15.154Z,3.61
2023-03-10T05:30:17.326Z,3.66
2023-03-10T05:31:26.264Z,3.70
2023-03-10T05:32:28.295Z,3.74
2023-03-10T05:33:31.515Z,3.69
2023-03-10T05:34:33.553Z,3.67
2023-03-10T05:35:35.523Z,3.63
2023-03-10T05:36:37.348Z,3.64
2023-03-10T05:37:40.088Z,3.64
2023-03-10T05:38:41.962Z,3.56
2023-03-10T05:39:46.567Z,3.49
2023-03-10T05:40:48.552Z,3.51
2023-03-10T05:41:50.439Z,3.53
2023-03-10T05:42:52.358Z,3.50
2023-03-10T05:43:54.331Z,3.43
2023-03-10T05:44:56.056Z,3.43
2023-03-10T05:45:58.598Z,3.48
2023-03-10T05:47:00.556Z,3.51
2023-03-10T05:48:02.525Z,3.55
2023-03-10T05:49:04.345Z,3.54
2023-03-10T05:50:06.521Z,3.58
2023-03-10T05:51:10.362Z,3.60
2023-03-10T05:52:12.369Z,3.63
2023-03-10T05:53:14.242Z,3.63
2023-03-10T05:54:17.036Z,3.54
2023-03-10T05:55:19.819Z,3.46
2023-03-10T05:56:22.559Z,3.42
2023-03-10T05:57:24.344Z,3.38
2023-03-10T05:58:28.511Z,3.39
2023-03-10T05:59:30.330Z,3.40
2023-03-10T06:00:32.208Z,3.39
2023-03-10T06:01:34.113Z,3.46
2023-03-10T06:02:36.199Z,3.48
2023-03-10T06:03:38.701Z,3.46
2023-03-10T06:04:40.638Z,3.41
2023-03-10T06:05:42.496Z,3.45
2023-03-10T06:06:44.404Z,3.46
2023-03-10T06:07:46.264Z,3.47
2023-03-10T06:08:48.246Z,3.49
2023-03-10T06:09:50.122Z,3.54
2023-03-10T06:10:51.978Z,3.58
2023-03-10T06:11:53.852Z,3.59
2023-03-10T06:12:55.780Z,3.56
2023-03-10T06:13:57.792Z,3.60
2023-03-10T06:14:59.807Z,3.63
2023-03-10T06:16:02.496Z,3.67
2023-03-10T06:17:04.466Z,3.71
2023-03-10T06:18:06.221Z,3.77
2023-03-10T06:19:08.160Z,3.76
2023-03-10T06:20:10.339Z,3.78
2023-03-10T06:21:14.396Z,3.84
2023-03-10T06:22:16.210Z,3.86
2023-03-10T06:23:18.222Z,3.88
2023-03-10T06:24:20.111Z,3.92
2023-03-10T06:25:21.972Z,3.95
2023-03-10T06:26:24.676Z,3.98
2023-03-10T06:27:26.608Z,3.98
2023-03-10T06:28:33.423Z,3.97
2023-03-10T06:29:35.299Z,3.93
2023-03-10T06:30:37.357Z,3.90
2023-03-10T06:31:39.172Z,3.89
2023-03-10T06:32:41.535Z,3.85
2023-03-10T06:33:44.166Z,3.85
2023-03-10T06:34:45.935Z,3.90
2023-03-10T06:35:47.880Z,3.90
2023-03-10T06:36:49.855Z,3.89
2023-03-10T06:37:51.644Z,3.93
2023-03-10T06:38:54.190Z,4.00
2023-03-10T06:39:56.080Z,4.05
2023-03-10T06:40:58.624Z,4.08
2023-03-10T06:42:01.396Z,4.14
2023-03-10T06:43:03.246Z,4.20
2023-03-10T06:44:05.102Z,4.22
2023-03-10T06:45:07.869Z,4.24
2023-03-10T06:46:11.053Z,4.29
2023-03-10T06:47:12.917Z,4.27
2023-03-10T06:48:15.250Z,4.24
2023-03-10T06:49:17.112Z,4.23
2023-03-10T06:50:18.943Z,4.22
2023-03-10T06:51:21.392Z,4.21
2023-03-10T06:52:23.306Z,4.23
2023-03-10T06:53:25.220Z,4.28
2023-03-10T06:54:27.201Z,4.34
2023-03-10T06:55:29.108Z,4.37
2023-03-10T06:56:30.997Z,4.41
2023-03-10T06:57:32.749Z,4.47
2023-03-10T06:58:36.094Z,4.51
2023-03-10T06:59:37.973Z,4.53
2023-03-10T07:00:39.927Z,4.57
2023-03-10T07:01:41.856Z,4.63
2023-03-10T07:02:43.738Z,4.69
2023-03-10T07:03:45.463Z,4.73
2023-03-10T07:04:47.316Z,4.77
2023-03-10T07:05:49.293Z,4.80
2023-03-10T07:06:51.180Z,4.83
2023-03-10T07:07:54.033Z,4.86
2023-03-10T07:08:56.082Z,4.88
2023-03-10T07:09:57.959Z,4.87
2023-03-10T07:10:59.723Z,4.87
2023-03-10T07:12:01.580Z,4.90
2023-03-10T07:13:03.396Z,4.88
2023-03-10T07:14:05.223Z,4.89
2023-03-10T07:15:07.371Z,4.88
2023-03-10T07:16:09.161Z,4.81
2023-03-10T07:17:11.065Z,4.70
2023-03-10T07:18:13.211Z,4.63
2023-03-10T07:19:15.028Z,4.63
2023-03-10T07:20:17.692Z,4.67
2023-03-10T07:21:20.631Z,4.70
2023-03-10T07:22:23.116Z,4.75
2023-03-10T07:23:25.584Z,4.80
2023-03-10T07:24:27.443Z,4.86
2023-03-10T07:25:29.391Z,4.85
2023-03-10T07:26:31.307Z,4.84
2023-03-10T07:27:33.504Z,4.81
2023-03-10T07:28:36.117Z,4.86
2023-03-10T07:29:37.925Z,4.86
2023-03-10T07:30:40.381Z,4.87
2023-03-10T07:31:44.211Z,4.85
2023-03-10T07:32:46.158Z,4.92
2023-03-10T07:33:49.765Z,4.97
2023-03-10T07:34:52.352Z,5.08
2023-03-10T07:35:54.275Z,5.18
2023-03-10T07:36:56.247Z,5.26
2023-03-10T07:37:58.152Z,5.37
2023-03-10T07:38:59.969Z,5.47
2023-03-10T07:40:01.806Z,5.57
2023-03-10T07:41:14.964Z,5.65
2023-03-10T07:42:16.725Z,5.75
2023-03-10T07:43:18.703Z,5.82
2023-03-10T07:44:20.763Z,5.88
2023-03-10T07:45:23.426Z,5.95
2023-03-10T07:46:25.363Z,6.03
2023-03-10T07:47:27.165Z,6.08
2023-03-10T07:48:29.107Z,6.12
2023-03-10T07:49:30.908Z,6.14
2023-03-10T07:50:32.719Z,6.22
2023-03-10T07:51:34.623Z,6.32
2023-03-10T07:52:36.472Z,6.38
2023-03-10T07:53:38.749Z,6.40
2023-03-10T07:54:40.593Z,6.47
2023-03-10T07:55:42.564Z,6.52
2023-03-10T07:56:44.352Z,6.58
2023-03-10T07:57:46.131Z,6.67
2023-03-10T07:58:48.132Z,6.73
2023-03-10T07:59:49.971Z,6.76
2023-03-10T08:00:59.099Z,6.81
2023-03-10T08:02:00.888Z,6.80
2023-03-10T08:03:02.757Z,6.85
2023-03-10T08:04:05.644Z,6.89
2023-03-10T08:05:08.271Z,6.96
2023-03-10T08:06:15.996Z,6.99
2023-03-10T08:07:17.913Z,7.05
2023-03-10T08:08:20.025Z,7.06
2023-03-10T08:09:21.921Z,7.09
2023-03-10T08:10:24.183Z,7.16
2023-03-10T08:11:26.133Z,7.20
2023-03-10T08:12:28.061Z,7.29
2023-03-10T08:13:30.455Z,7.35
2023-03-10T08:14:32.631Z,7.43
2023-03-10T08:15:34.555Z,7.47
2023-03-10T08:16:38.201Z,7.52
2023-03-10T08:17:40.578Z,7.58
2023-03-10T08:18:42.390Z,7.63
2023-03-10T08:19:44.282Z,7.70
2023-03-10T08:20:46.084Z,7.71
2023-03-10T08:21:47.954Z,7.79
2023-03-10T08:22:49.791Z,7.88
2023-03-10T08:23:51.637Z,7.96
2023-03-10T08:24:53.642Z,7.99
2023-03-10T08:25:55.540Z,8.04
2023-03-10T08:26:57.541Z,8.12
2023-03-10T08:27:59.468Z,8.19
2023-03-10T08:29:01.373Z,8.25
2023-03-10T08:30:03.320Z,8.31
2023-03-10T08:31:11.274Z,8.40
2023-03-10T08:32:13.258Z,8.46
2023-03-10T08:33:15.086Z,8.52
2023-03-10T08:34:17.438Z,8.56
2023-03-10T08:35:19.671Z,8.56
2023-03-10T08:36:22.641Z,8.56
2023-03-10T08:37:24.554Z,8.60
2023-03-10T08:38:26.416Z,8.64
2023-03-10T08:39:28.969Z,8.71
2023-03-10T08:40:31.429Z,8.77
2023-03-10T08:41:37.562Z,8.83
2023-03-10T08:42:39.617Z,8.88
2023-03-10T08:43:41.864Z,8.95
2023-03-10T08:44:43.784Z,9.01
2023-03-10T08:45:45.615Z,9.08
2023-03-10T08:46:48.178Z,9.13
2023-03-10T08:47:50.124Z,9.18
2023-03-10T08:48:52.802Z,9.19
2023-03-10T08:49:54.632Z,9.23
2023-03-10T08:50:57.996Z,9.26
2023-03-10T08:52:00.666Z,9.33
2023-03-10T08:53:04.290Z,9.38
2023-03-10T08:54:06.117Z,9.43
2023-03-10T08:55:08.795Z,9.48
2023-03-10T08:56:10.570Z,9.50
2023-03-10T08:57:12.348Z,9.52
2023-03-10T08:58:14.247Z,9.55
2023-03-10T08:59:16.199Z,9.60
2023-03-10T09:00:18.315Z,9.66
2023-03-10T09:01:20.086Z,9.71
2023-03-10T09:02:22.735Z,9.75
2023-03-10T09:03:25.995Z,9.81
2023-03-10T09:04:27.861Z,9.87
2023-03-10T09:05:29.796Z,9.94
2023-03-10T09:06:31.557Z,10.05
2023-03-10T09:07:33.440Z,10.15
2023-03-10T09:08:35.772Z,10.23
2023-03-10T09:09:37.597Z,10.35
2023-03-10T09:10:40.691Z,10.38
2023-03-10T09:11:42.501Z,10.42
2023-03-10T09:12:44.394Z,10.46
2023-03-10T09:13:46.509Z,10.49
2023-03-10T09:14:48.337Z,10.53
2023-03-10T09:15:51.054Z,10.54
2023-03-10T09:16:53.036Z,10.58
2023-03-10T09:17:55.899Z,10.65
2023-03-10T09:18:58.535Z,10.73
2023-03-10T09:20:00.410Z,10.82
2023-03-10T09:21:02.213Z,10.89
2023-03-10T09:22:04.134Z,10.96
2023-03-10T09:23:06.499Z,10.96
2023-03-10T09:24:08.555Z,10.98
2023-03-10T09:25:11.511Z,10.98
2023-03-10T09:26:13.961Z,10.98
2023-03-10T09:27:15.814Z,10.98
2023-03-10T09:28:18.845Z,11.00
2023-03-10T09:29:27.020Z,11.04
2023-03-10T09:30:40.211Z,11.11
2023-03-10T09:31:43.807Z,11.18
2023-03-10T09:32:45.754Z,11.22
2023-03-10T09:33:48.340Z,11.27
2023-03-10T09:34:50.537Z,11.35
2023-03-10T09:36:05.258Z,11.43
2023-03-10T09:37:08.616Z,11.49
2023-03-10T09:38:10.758Z,11.59
2023-03-10T09:39:12.537Z,11.66
2023-03-10T09:40:20.830Z,11.74
2023-03-10T09:41:33.164Z,11.84
2023-03-10T09:42:46.425Z,11.97
2023-03-10T09:43:55.365Z,12.18
2023-03-10T09:45:23.456Z,12.32
2023-03-10T09:46:27.860Z,12.49
2023-03-10T09:47:41.938Z,12.64
2023-03-10T09:49:05.139Z,12.75
2023-03-10T09:50:23.428Z,12.86
2023-03-10T09:51:27.784Z,12.96
2023-03-10T09:52:52.931Z,13.04
2023-03-10T09:54:03.388Z,13.10
2023-03-10T09:55:26.028Z,13.12
2023-03-10T09:56:34.656Z,13.07
2023-03-10T09:57:36.568Z,13.00
2023-03-10T09:58:47.131Z,12.92
2023-03-10T09:59:50.991Z,12.81
2023-03-10T10:00:52.977Z,12.73
2023-03-10T10:01:55.380Z,12.64
2023-03-10T10:03:00.271Z,12.57
2023-03-10T10:04:18.648Z,12.54
2023-03-10T10:05:23.996Z,12.52
2023-03-10T10:06:38.059Z,12.48
2023-03-10T10:07:49.543Z,12.45
2023-03-10T10:09:03.627Z,12.41
2023-03-10T10:10:09.495Z,12.37
2023-03-10T10:11:14.465Z,12.34
2023-03-10T10:12:17.749Z,12.31
2023-03-10T10:13:19.941Z,12.29
2023-03-10T10:14:31.024Z,12.28
2023-03-10T10:15:37.049Z,12.25
2023-03-10T10:17:00.161Z,12.22
2023-03-10T10:18:18.856Z,12.19
2023-03-10T10:19:23.446Z,12.16
2023-03-10T10:20:39.854Z,12.16
2023-03-10T10:21:53.700Z,12.18
2023-03-10T10:22:55.580Z,12.18
2023-03-10T10:23:59.544Z,12.17
2023-03-10T10:25:13.503Z,12.18
2023-03-10T10:26:16.815Z,12.20
2023-03-10T10:27:21.446Z,12.21
2023-03-10T10:28:44.129Z,12.23
2023-03-10T10:29:47.363Z,12.27
2023-03-10T10:30:49.577Z,12.28
2023-03-10T10:32:03.891Z,12.30
2023-03-10T10:33:07.225Z,12.29
2023-03-10T10:34:22.086Z,12.29
2023-03-10T10:35:27.618Z,12.26
2023-03-10T10:36:48.634Z,12.26
2023-03-10T10:37:58.638Z,12.25
2023-03-10T10:39:00.557Z,12.27
2023-03-10T10:40:02.409Z,12.26
2023-03-10T10:41:07.457Z,12.27
2023-03-10T10:42:12.826Z,12.26
2023-03-10T10:43:16.989Z,12.24
2023-03-10T10:44:19.390Z,12.23
2023-03-10T10:45:27.315Z,12.25
2023-03-10T10:46:30.081Z,12.24
2023-03-10T10:47:33.527Z,12.24
2023-03-10T10:48:38.316Z,12.26
2023-03-10T10:49:40.152Z,12.25
2023-03-10T10:50:53.101Z,12.26
2023-03-10T10:51:58.212Z,12.26
2023-03-10T10:53:17.271Z,12.26
2023-03-10T10:54:22.901Z,12.29
2023-03-10T10:55:27.567Z,12.30
2023-03-10T10:56:29.665Z,12.32
2023-03-10T10:57:36.497Z,12.33
2023-03-10T10:58:39.370Z,12.34
2023-03-10T10:59:41.218Z,12.35
2023-03-10T11:00:43.030Z,12.35
2023-03-10T11:01:53.201Z,12.35
2023-03-10T11:02:55.657Z,12.34
2023-03-10T11:04:07.558Z,12.35
2023-03-10T11:05:12.436Z,12.36
2023-03-10T11:06:32.442Z,12.35
2023-03-10T11:07:34.252Z,12.35
2023-03-10T11:08:39.700Z,12.33
2023-03-10T11:09:41.602Z,12.32
2023-03-10T11:10:44.637Z,12.32
2023-03-10T11:12:01.978Z,12.32
2023-03-10T11:13:09.618Z,12.31
2023-03-10T11:14:29.827Z,12.30
2023-03-10T11:15:31.895Z,12.28
2023-03-10T11:16:57.084Z,12.27
2023-03-10T11:18:13.383Z,12.25
2023-03-10T11:19:41.486Z,12.25
2023-03-10T11:20:59.778Z,12.25
2023-03-10T11:22:09.354Z,12.23
2023-03-10T11:23:17.189Z,12.23
2023-03-10T11:24:34.673Z,12.21
2023-03-10T11:25:40.039Z,12.21
2023-03-10T11:26:45.080Z,12.20
2023-03-10T11:27:53.011Z,12.20
2023-03-10T11:29:21.238Z,12.20
2023-03-10T11:30:25.519Z,12.21
2023-03-10T11:31:36.946Z,12.20
2023-03-10T11:32:48.101Z,12.19
2023-03-10T11:33:59.311Z,12.18
2023-03-10T11:35:07.251Z,12.18
2023-03-10T11:36:21.305Z,12.17
2023-03-10T11:37:25.221Z,12.16
2023-03-10T11:38:44.574Z,12.16
2023-03-10T11:39:49.341Z,12.16
2023-03-10T11:41:14.560Z,12.15
2023-03-10T11:42:26.255Z,12.14
2023-03-10T11:43:31.946Z,12.13
2023-03-10T11:44:48.551Z,12.12
2023-03-10T11:45:53.861Z,12.10
2023-03-10T11:46:55.675Z,12.05
2023-03-10T11:47:57.550Z,12.04
2023-03-10T11:49:20.026Z,12.03
2023-03-10T11:50:28.353Z,11.98
2023-03-10T11:51:42.127Z,11.97
2023-03-10T11:52:44.976Z,11.96
2023-03-10T11:53:58.017Z,11.97
2023-03-10T11:55:07.278Z,11.98
2023-03-10T11:56:11.437Z,11.97
2023-03-10T11:57:25.131Z,11.96
2023-03-10T11:58:40.536Z,11.97
2023-03-10T11:59:48.002Z,11.99
2023-03-10T12:00:52.952Z,11.99
2023-03-10T12:02:24.941Z,12.01
2023-03-10T12:03:42.671Z,12.03
2023-03-10T12:04:51.402Z,12.04
2023-03-10T12:05:58.860Z,12.06
2023-03-10T12:07:04.164Z,12.07
2023-03-10T12:08:07.178Z,12.09
2023-03-10T12:09:16.105Z,12.10
2023-03-10T12:10:22.177Z,12.10
2023-03-10T12:11:27.323Z,12.06
2023-03-10T12:12:34.014Z,12.04
2023-03-10T12:14:05.206Z,12.04
2023-03-10T12:15:22.524Z,12.03
2023-03-10T12:16:26.328Z,11.99
2023-03-10T12:17:28.840Z,11.99
2023-03-10T12:18:30.621Z,11.98
2023-03-10T12:19:32.542Z,11.95
2023-03-10T12:20:34.965Z,11.95
2023-03-10T12:21:36.859Z,11.95
2023-03-10T12:22:39.983Z,11.94
2023-03-10T12:23:46.560Z,11.91
2023-03-10T12:24:48.507Z,11.91
2023-03-10T12:25:50.429Z,11.92
2023-03-10T12:27:00.025Z,11.91
2023-03-10T12:28:13.817Z,11.93
2023-03-10T12:29:21.710Z,11.91
2023-03-10T12:30:41.859Z,11.91
2023-03-10T12:31:47.634Z,11.92
2023-03-10T12:32:49.617Z,11.91
2023-03-10T12:33:52.566Z,11.91
2023-03-10T12:35:14.257Z,11.91
2023-03-10T12:36:32.929Z,11.91
2023-03-10T12:37:34.692Z,11.89
2023-03-10T12:38:40.174Z,11.88
2023-03-10T12:39:46.261Z,11.87
2023-03-10T12:40:50.455Z,11.89
2023-03-10T12:41:53.387Z,11.92
2023-03-10T12:42:55.203Z,11.94
2023-03-10T12:44:00.452Z,11.96
2023-03-10T12:45:15.663Z,11.95
2023-03-10T12:46:23.587Z,11.93
2023-03-10T12:47:44.261Z,11.92
2023-03-10T12:48:48.551Z,11.91
2023-03-10T12:49:55.853Z,11.90
2023-03-10T12:51:00.134Z,11.89
2023-03-10T12:52:01.926Z,11.90
2023-03-10T12:53:22.558Z,11.90
2023-03-10T12:54:44.693Z,11.92
2023-03-10T12:56:05.568Z,11.92
2023-03-10T12:57:15.322Z,11.95
2023-03-10T12:58:23.825Z,11.96
2023-03-10T12:59:44.493Z,11.97
2023-03-10T13:00:49.474Z,11.96
2023-03-10T13:01:55.797Z,11.95
2023-03-10T13:03:03.906Z,11.91
2023-03-10T13:04:07.645Z,11.91
2023-03-10T13:05:19.405Z,11.92
2023-03-10T13:06:22.500Z,11.92
2023-03-10T13:07:24.354Z,11.93
2023-03-10T13:08:44.647Z,11.92
2023-03-10T13:09:48.203Z,11.94
2023-03-10T13:10:54.943Z,11.95
2023-03-10T13:12:03.463Z,11.96
2023-03-10T13:13:07.082Z,11.98
2023-03-10T13:14:16.409Z,11.98
2023-03-10T13:15:25.135Z,11.98
2023-03-10T13:16:27.051Z,11.97
2023-03-10T13:17:30.105Z,11.95
2023-03-10T13:18:32.241Z,11.96
2023-03-10T13:19:35.036Z,11.98
2023-03-10T13:20:37.768Z,11.98
2023-03-10T13:21:39.875Z,12.00
2023-03-10T13:22:51.981Z,12.01
2023-03-10T13:23:53.997Z,12.03
2023-03-10T13:25:04.532Z,12.01
2023-03-10T13:26:07.676Z,12.01
2023-03-10T13:27:14.097Z,12.01
2023-03-10T13:28:15.924Z,12.03
2023-03-10T13:29:19.126Z,12.05
2023-03-10T13:30:22.756Z,12.07
2023-03-10T13:31:26.147Z,12.09
2023-03-10T13:32:29.563Z,12.11
2023-03-10T13:33:35.400Z,12.14
2023-03-10T13:34:44.996Z,12.18
2023-03-10T13:35:47.710Z,12.20
2023-03-10T13:36:49.753Z,12.26
2023-03-10T13:38:09.898Z,12.30
2023-03-10T13:39:16.529Z,12.40
2023-03-10T13:40:18.599Z,12.51
2023-03-10T13:41:20.529Z,12.64
2023-03-10T13:42:28.297Z,12.76
2023-03-10T13:43:37.736Z,12.92
2023-03-10T13:44:41.083Z,13.10
2023-03-10T13:45:42.949Z,13.25
2023-03-10T13:47:04.761Z,13.40
2023-03-10T13:48:06.838Z,13.65
2023-03-10T13:49:09.016Z,13.77
2023-03-10T13:50:15.633Z,13.84
2023-03-10T13:51:23.032Z,13.84
2023-03-10T13:52:29.354Z,13.85
2023-03-10T13:53:31.181Z,13.86
2023-03-10T13:54:34.372Z,13.89
2023-03-10T13:55:39.714Z,13.90
2023-03-10T13:56:43.512Z,13.89
2023-03-10T13:57:46.559Z,13.85
2023-03-10T13:58:49.459Z,13.82
2023-03-10T13:59:52.392Z,13.78
2023-03-10T14:00:56.689Z,13.72
2023-03-10T14:02:00.242Z,13.69
2023-03-10T14:03:02.883Z,13.64
2023-03-10T14:04:08.936Z,13.59
2023-03-10T14:05:29.530Z,13.55
2023-03-10T14:06:31.937Z,13.51
2023-03-10T14:07:37.867Z,13.49
2023-03-10T14:08:39.797Z,13.47